sensor_id;sensor_type;location;lat;lon;timestamp;pressure;altitude;pressure_sealevel;temperature;humidity
20971;BME280;10644;48.834;10.088;2023-11-19T00:00:18;96590.38;;;10.41;73.70
20971;BME280;10644;48.834;10.088;2023-11-19T00:02:44;96568.97;;;10.26;74.62
20971;BME280;10644;48.834;10.088;2023-11-19T00:05:10;96569.88;;;10.25;75.25
20971;BME280;10644;48.834;10.088;2023-11-19T00:07:37;96570.88;;;10.38;75.17
20971;BME280;10644;48.834;10.088;2023-11-19T00:10:10;96569.69;;;10.59;74.61
20971;BME280;10644;48.834;10.088;2023-11-19T00:12:42;96559.38;;;10.90;73.39
20971;BME280;10644;48.834;10.088;2023-11-19T00:15:09;96545.75;;;11.04;73.45
20971;BME280;10644;48.834;10.088;2023-11-19T00:17:44;96568.34;;;10.97;73.90
20971;BME280;10644;48.834;10.088;2023-11-19T00:20:11;96554.38;;;11.03;73.39
20971;BME280;10644;48.834;10.088;2023-11-19T00:22:37;96565.44;;;11.03;74.02
20971;BME280;10644;48.834;10.088;2023-11-19T00:25:02;96551.34;;;11.10;73.56
20971;BME280;10644;48.834;10.088;2023-11-19T00:27:28;96560.44;;;11.16;73.04
20971;BME280;10644;48.834;10.088;2023-11-19T00:29:54;96555.56;;;11.25;73.00
20971;BME280;10644;48.834;10.088;2023-11-19T00:32:19;96548.09;;;11.36;72.90
20971;BME280;10644;48.834;10.088;2023-11-19T00:34:44;96535.81;;;11.41;72.33
20971;BME280;10644;48.834;10.088;2023-11-19T00:37:10;96537.81;;;11.50;72.06
20971;BME280;10644;48.834;10.088;2023-11-19T00:39:35;96540.75;;;11.44;72.41
20971;BME280;10644;48.834;10.088;2023-11-19T00:42:01;96520.91;;;11.48;72.31
20971;BME280;10644;48.834;10.088;2023-11-19T00:44:26;96526.47;;;11.54;72.19
20971;BME280;10644;48.834;10.088;2023-11-19T00:46:51;96522.78;;;11.44;73.03
20971;BME280;10644;48.834;10.088;2023-11-19T00:49:17;96516.56;;;11.20;73.91
20971;BME280;10644;48.834;10.088;2023-11-19T00:51:42;96508.44;;;11.28;73.97
20971;BME280;10644;48.834;10.088;2023-11-19T00:54:07;96523.91;;;11.40;73.90
20971;BME280;10644;48.834;10.088;2023-11-19T00:56:33;96519.06;;;11.50;73.56
20971;BME280;10644;48.834;10.088;2023-11-19T00:58:58;96521.16;;;11.57;73.05
20971;BME280;10644;48.834;10.088;2023-11-19T01:01:25;96528.94;;;11.56;73.33
20971;BME280;10644;48.834;10.088;2023-11-19T01:03:50;96531.41;;;11.57;73.23
20971;BME280;10644;48.834;10.088;2023-11-19T01:06:30;96528.50;;;11.63;73.20
20971;BME280;10644;48.834;10.088;2023-11-19T01:08:56;96536.22;;;11.63;73.58
20971;BME280;10644;48.834;10.088;2023-11-19T01:11:22;96531.81;;;11.65;73.59
20971;BME280;10644;48.834;10.088;2023-11-19T01:13:48;96513.56;;;11.56;73.59
20971;BME280;10644;48.834;10.088;2023-11-19T01:16:14;96513.66;;;11.40;74.20
20971;BME280;10644;48.834;10.088;2023-11-19T01:18:39;96515.94;;;11.45;74.40
20971;BME280;10644;48.834;10.088;2023-11-19T01:21:05;96523.53;;;11.32;74.96
20971;BME280;10644;48.834;10.088;2023-11-19T01:23:30;96508.88;;;11.48;74.70
20971;BME280;10644;48.834;10.088;2023-11-19T01:25:56;96509.81;;;11.61;73.85
20971;BME280;10644;48.834;10.088;2023-11-19T01:28:21;96516.97;;;11.70;73.75
20971;BME280;10644;48.834;10.088;2023-11-19T01:30:50;96517.16;;;11.67;73.32
20971;BME280;10644;48.834;10.088;2023-11-19T01:33:16;96516.88;;;11.72;73.42
20971;BME280;10644;48.834;10.088;2023-11-19T01:35:41;96503.75;;;11.76;73.04
20971;BME280;10644;48.834;10.088;2023-11-19T01:38:06;96499.91;;;11.69;73.06
20971;BME280;10644;48.834;10.088;2023-11-19T01:40:33;96505.06;;;11.69;73.48
20971;BME280;10644;48.834;10.088;2023-11-19T01:42:59;96497.53;;;11.80;72.78
20971;BME280;10644;48.834;10.088;2023-11-19T01:45:29;96498.31;;;11.81;72.85
20971;BME280;10644;48.834;10.088;2023-11-19T01:48:00;96489.28;;;11.75;73.26
20971;BME280;10644;48.834;10.088;2023-11-19T01:50:30;96488.50;;;11.87;72.77
20971;BME280;10644;48.834;10.088;2023-11-19T01:52:56;96479.56;;;11.66;73.52
20971;BME280;10644;48.834;10.088;2023-11-19T01:55:25;96490.97;;;11.62;73.79
20971;BME280;10644;48.834;10.088;2023-11-19T01:57:55;96495.13;;;11.77;73.04
20971;BME280;10644;48.834;10.088;2023-11-19T02:00:24;96484.28;;;11.60;73.79
20971;BME280;10644;48.834;10.088;2023-11-19T02:02:50;96487.63;;;11.74;73.26
20971;BME280;10644;48.834;10.088;2023-11-19T02:05:17;96491.94;;;11.74;73.50
20971;BME280;10644;48.834;10.088;2023-11-19T02:07:42;96483.59;;;11.84;73.54
20971;BME280;10644;48.834;10.088;2023-11-19T02:10:08;96481.53;;;11.89;73.42
20971;BME280;10644;48.834;10.088;2023-11-19T02:12:40;96477.06;;;11.93;73.50
20971;BME280;10644;48.834;10.088;2023-11-19T02:15:09;96468.44;;;11.94;74.11
20971;BME280;10644;48.834;10.088;2023-11-19T02:17:37;96471.97;;;12.05;74.16
20971;BME280;10644;48.834;10.088;2023-11-19T02:20:05;96462.59;;;12.18;74.12
20971;BME280;10644;48.834;10.088;2023-11-19T02:22:36;96475.41;;;12.18;75.85
20971;BME280;10644;48.834;10.088;2023-11-19T02:25:07;96464.69;;;12.12;76.57
20971;BME280;10644;48.834;10.088;2023-11-19T02:27:54;96475.91;;;12.11;77.79
20971;BME280;10644;48.834;10.088;2023-11-19T02:30:21;96459.56;;;12.12;78.12
20971;BME280;10644;48.834;10.088;2023-11-19T02:32:52;96468.09;;;12.12;78.47
20971;BME280;10644;48.834;10.088;2023-11-19T02:35:18;96454.13;;;12.16;78.19
20971;BME280;10644;48.834;10.088;2023-11-19T02:37:43;96458.34;;;12.17;78.52
20971;BME280;10644;48.834;10.088;2023-11-19T02:40:10;96453.50;;;12.13;78.77
20971;BME280;10644;48.834;10.088;2023-11-19T02:42:35;96452.09;;;12.21;78.83
20971;BME280;10644;48.834;10.088;2023-11-19T02:45:01;96451.53;;;12.30;78.47
20971;BME280;10644;48.834;10.088;2023-11-19T02:47:27;96450.50;;;12.33;77.57
20971;BME280;10644;48.834;10.088;2023-11-19T02:49:55;96456.03;;;12.39;77.77
20971;BME280;10644;48.834;10.088;2023-11-19T02:52:21;96447.94;;;12.45;77.09
20971;BME280;10644;48.834;10.088;2023-11-19T02:54:46;96460.25;;;12.40;77.37
20971;BME280;10644;48.834;10.088;2023-11-19T02:57:12;96455.94;;;12.41;76.89
20971;BME280;10644;48.834;10.088;2023-11-19T02:59:39;96454.31;;;12.40;77.09
20971;BME280;10644;48.834;10.088;2023-11-19T03:02:06;96457.69;;;12.40;77.06
20971;BME280;10644;48.834;10.088;2023-11-19T03:04:35;96459.88;;;12.46;76.65
20971;BME280;10644;48.834;10.088;2023-11-19T03:07:00;96454.94;;;12.43;76.24
20971;BME280;10644;48.834;10.088;2023-11-19T03:09:28;96458.69;;;12.25;77.22
20971;BME280;10644;48.834;10.088;2023-11-19T03:11:54;96459.72;;;12.23;77.57
20971;BME280;10644;48.834;10.088;2023-11-19T03:14:20;96443.47;;;12.22;77.77
20971;BME280;10644;48.834;10.088;2023-11-19T03:16:45;96444.75;;;12.29;77.61
20971;BME280;10644;48.834;10.088;2023-11-19T03:19:14;96457.47;;;12.31;77.51
20971;BME280;10644;48.834;10.088;2023-11-19T03:21:40;96456.97;;;12.38;77.45
20971;BME280;10644;48.834;10.088;2023-11-19T03:24:05;96454.19;;;12.29;78.14
20971;BME280;10644;48.834;10.088;2023-11-19T03:26:34;96459.22;;;12.30;78.26
20971;BME280;10644;48.834;10.088;2023-11-19T03:29:00;96457.19;;;12.35;77.76
20971;BME280;10644;48.834;10.088;2023-11-19T03:31:26;96458.72;;;12.38;77.61
20971;BME280;10644;48.834;10.088;2023-11-19T03:33:51;96466.78;;;12.19;78.78
20971;BME280;10644;48.834;10.088;2023-11-19T03:36:17;96474.03;;;12.13;79.28
20971;BME280;10644;48.834;10.088;2023-11-19T03:38:42;96480.16;;;12.24;78.85
20971;BME280;10644;48.834;10.088;2023-11-19T03:41:14;96481.25;;;12.20;79.01
20971;BME280;10644;48.834;10.088;2023-11-19T03:43:40;96468.09;;;12.12;79.44
20971;BME280;10644;48.834;10.088;2023-11-19T03:46:21;96479.41;;;12.22;79.30
20971;BME280;10644;48.834;10.088;2023-11-19T03:48:47;96475.81;;;12.25;79.44
20971;BME280;10644;48.834;10.088;2023-11-19T03:51:13;96459.09;;;12.19;79.43
20971;BME280;10644;48.834;10.088;2023-11-19T03:53:45;96467.72;;;12.18;79.72
20971;BME280;10644;48.834;10.088;2023-11-19T03:56:11;96471.00;;;12.20;79.89
20971;BME280;10644;48.834;10.088;2023-11-19T03:58:37;96457.66;;;12.28;79.99
20971;BME280;10644;48.834;10.088;2023-11-19T04:01:04;96450.78;;;12.28;79.71
20971;BME280;10644;48.834;10.088;2023-11-19T04:03:31;96432.34;;;12.09;80.39
20971;BME280;10644;48.834;10.088;2023-11-19T04:05:57;96425.97;;;12.15;80.51
20971;BME280;10644;48.834;10.088;2023-11-19T04:08:22;96427.53;;;12.17;80.25
20971;BME280;10644;48.834;10.088;2023-11-19T04:10:50;96413.44;;;12.10;80.97
20971;BME280;10644;48.834;10.088;2023-11-19T04:13:16;96417.38;;;12.16;80.89
20971;BME280;10644;48.834;10.088;2023-11-19T04:15:42;96413.44;;;12.10;80.99
20971;BME280;10644;48.834;10.088;2023-11-19T04:18:08;96416.75;;;12.12;81.15
20971;BME280;10644;48.834;10.088;2023-11-19T04:20:34;96413.88;;;12.17;82.06
20971;BME280;10644;48.834;10.088;2023-11-19T04:22:59;96411.63;;;12.25;81.40
20971;BME280;10644;48.834;10.088;2023-11-19T04:25:25;96408.78;;;12.29;81.13
20971;BME280;10644;48.834;10.088;2023-11-19T04:27:51;96402.28;;;12.24;81.50
20971;BME280;10644;48.834;10.088;2023-11-19T04:30:18;96415.00;;;12.13;82.34
20971;BME280;10644;48.834;10.088;2023-11-19T04:32:44;96437.94;;;12.28;82.07
20971;BME280;10644;48.834;10.088;2023-11-19T04:35:13;96412.88;;;12.19;82.73
20971;BME280;10644;48.834;10.088;2023-11-19T04:37:39;96417.00;;;12.34;82.22
20971;BME280;10644;48.834;10.088;2023-11-19T04:40:05;96413.31;;;12.38;82.15
20971;BME280;10644;48.834;10.088;2023-11-19T04:42:30;96420.81;;;12.41;82.14
20971;BME280;10644;48.834;10.088;2023-11-19T04:44:57;96413.25;;;12.52;81.54
20971;BME280;10644;48.834;10.088;2023-11-19T04:47:22;96408.91;;;12.53;81.96
20971;BME280;10644;48.834;10.088;2023-11-19T04:49:47;96407.34;;;12.50;82.09
20971;BME280;10644;48.834;10.088;2023-11-19T04:52:13;96407.38;;;12.63;81.65
20971;BME280;10644;48.834;10.088;2023-11-19T04:54:42;96417.22;;;12.56;82.06
20971;BME280;10644;48.834;10.088;2023-11-19T04:57:10;96413.34;;;12.63;81.89
20971;BME280;10644;48.834;10.088;2023-11-19T04:59:36;96420.13;;;12.64;82.16
20971;BME280;10644;48.834;10.088;2023-11-19T05:02:02;96402.34;;;12.61;82.28
20971;BME280;10644;48.834;10.088;2023-11-19T05:04:30;96403.56;;;12.68;81.78
20971;BME280;10644;48.834;10.088;2023-11-19T05:06:55;96410.47;;;12.68;82.18
20971;BME280;10644;48.834;10.088;2023-11-19T05:09:21;96420.84;;;12.66;82.49
20971;BME280;10644;48.834;10.088;2023-11-19T05:11:46;96417.66;;;12.63;82.58
20971;BME280;10644;48.834;10.088;2023-11-19T05:14:11;96434.53;;;12.67;81.99
20971;BME280;10644;48.834;10.088;2023-11-19T05:16:39;96421.25;;;12.60;82.88
20971;BME280;10644;48.834;10.088;2023-11-19T05:19:05;96420.53;;;12.58;83.13
20971;BME280;10644;48.834;10.088;2023-11-19T05:21:30;96419.72;;;12.70;83.54
20971;BME280;10644;48.834;10.088;2023-11-19T05:23:56;96425.66;;;12.71;83.13
20971;BME280;10644;48.834;10.088;2023-11-19T05:26:22;96420.13;;;12.64;82.95
20971;BME280;10644;48.834;10.088;2023-11-19T05:28:49;96422.59;;;12.66;82.86
20971;BME280;10644;48.834;10.088;2023-11-19T05:31:17;96413.34;;;12.63;83.19
20971;BME280;10644;48.834;10.088;2023-11-19T05:33:43;96406.66;;;12.73;82.90
20971;BME280;10644;48.834;10.088;2023-11-19T05:36:10;96413.97;;;12.67;83.18
20971;BME280;10644;48.834;10.088;2023-11-19T05:38:36;96416.22;;;12.71;83.09
20971;BME280;10644;48.834;10.088;2023-11-19T05:41:02;96412.81;;;12.71;83.11
20971;BME280;10644;48.834;10.088;2023-11-19T05:43:27;96414.69;;;12.81;82.68
20971;BME280;10644;48.834;10.088;2023-11-19T05:45:53;96415.38;;;12.71;82.83
20971;BME280;10644;48.834;10.088;2023-11-19T05:48:18;96399.97;;;12.83;83.07
20971;BME280;10644;48.834;10.088;2023-11-19T05:50:43;96418.28;;;12.79;82.89
20971;BME280;10644;48.834;10.088;2023-11-19T05:53:09;96405.34;;;12.80;82.85
20971;BME280;10644;48.834;10.088;2023-11-19T05:55:38;96414.38;;;12.86;82.76
20971;BME280;10644;48.834;10.088;2023-11-19T05:58:11;96419.22;;;12.78;83.51
20971;BME280;10644;48.834;10.088;2023-11-19T06:00:38;96420.25;;;12.75;83.91
20971;BME280;10644;48.834;10.088;2023-11-19T06:03:04;96412.09;;;12.69;84.18
20971;BME280;10644;48.834;10.088;2023-11-19T06:05:29;96414.38;;;12.73;84.03
20971;BME280;10644;48.834;10.088;2023-11-19T06:07:55;96427.03;;;12.76;84.08
20971;BME280;10644;48.834;10.088;2023-11-19T06:10:20;96423.09;;;12.83;83.82
20971;BME280;10644;48.834;10.088;2023-11-19T06:12:46;96432.34;;;12.73;84.13
20971;BME280;10644;48.834;10.088;2023-11-19T06:15:12;96428.13;;;12.72;83.91
20971;BME280;10644;48.834;10.088;2023-11-19T06:17:38;96428.16;;;12.85;83.54
20971;BME280;10644;48.834;10.088;2023-11-19T06:20:04;96436.00;;;12.96;83.33
20971;BME280;10644;48.834;10.088;2023-11-19T06:22:30;96439.06;;;12.88;83.19
20971;BME280;10644;48.834;10.088;2023-11-19T06:24:56;96431.66;;;12.84;83.63
20971;BME280;10644;48.834;10.088;2023-11-19T06:27:21;96434.50;;;12.79;83.57
20971;BME280;10644;48.834;10.088;2023-11-19T06:29:47;96435.34;;;12.92;83.47
20971;BME280;10644;48.834;10.088;2023-11-19T06:32:12;96425.63;;;12.97;83.13
20971;BME280;10644;48.834;10.088;2023-11-19T06:34:38;96416.25;;;13.09;82.30
20971;BME280;10644;48.834;10.088;2023-11-19T06:37:03;96417.38;;;13.17;82.27
20971;BME280;10644;48.834;10.088;2023-11-19T06:39:29;96422.91;;;13.24;81.96
20971;BME280;10644;48.834;10.088;2023-11-19T06:41:59;96400.00;;;13.08;82.05
20971;BME280;10644;48.834;10.088;2023-11-19T06:44:25;96401.94;;;13.05;82.68
20971;BME280;10644;48.834;10.088;2023-11-19T06:46:53;96404.94;;;13.11;82.21
20971;BME280;10644;48.834;10.088;2023-11-19T06:49:18;96410.06;;;13.11;82.14
20971;BME280;10644;48.834;10.088;2023-11-19T06:51:44;96402.25;;;13.13;81.82
20971;BME280;10644;48.834;10.088;2023-11-19T06:54:11;96427.22;;;13.23;81.87
20971;BME280;10644;48.834;10.088;2023-11-19T06:56:36;96423.94;;;13.21;81.60
20971;BME280;10644;48.834;10.088;2023-11-19T06:59:02;96428.66;;;13.27;81.33
20971;BME280;10644;48.834;10.088;2023-11-19T07:01:30;96448.22;;;13.42;80.90
20971;BME280;10644;48.834;10.088;2023-11-19T07:03:59;96454.25;;;13.41;81.05
20971;BME280;10644;48.834;10.088;2023-11-19T07:06:27;96443.50;;;13.36;81.29
20971;BME280;10644;48.834;10.088;2023-11-19T07:08:52;96448.69;;;13.47;80.75
20971;BME280;10644;48.834;10.088;2023-11-19T07:11:20;96442.56;;;13.37;81.04
20971;BME280;10644;48.834;10.088;2023-11-19T07:13:45;96444.19;;;13.51;80.97
20971;BME280;10644;48.834;10.088;2023-11-19T07:16:14;96443.16;;;13.53;80.70
20971;BME280;10644;48.834;10.088;2023-11-19T07:18:39;96447.63;;;13.62;80.64
20971;BME280;10644;48.834;10.088;2023-11-19T07:21:05;96447.00;;;13.71;80.06
20971;BME280;10644;48.834;10.088;2023-11-19T07:23:30;96447.00;;;13.71;79.99
20971;BME280;10644;48.834;10.088;2023-11-19T07:25:56;96454.00;;;13.69;80.16
20971;BME280;10644;48.834;10.088;2023-11-19T07:28:21;96464.28;;;13.69;80.11
20971;BME280;10644;48.834;10.088;2023-11-19T07:30:47;96471.56;;;13.75;80.02
20971;BME280;10644;48.834;10.088;2023-11-19T07:33:12;96474.16;;;13.75;80.36
20971;BME280;10644;48.834;10.088;2023-11-19T07:35:39;96473.19;;;13.65;80.49
20971;BME280;10644;48.834;10.088;2023-11-19T07:38:04;96473.28;;;13.63;80.67
20971;BME280;10644;48.834;10.088;2023-11-19T07:40:30;96487.38;;;13.58;81.29
20971;BME280;10644;48.834;10.088;2023-11-19T07:42:55;96482.66;;;13.52;81.84
20971;BME280;10644;48.834;10.088;2023-11-19T07:45:23;96486.34;;;13.60;81.63
20971;BME280;10644;48.834;10.088;2023-11-19T07:47:48;96475.31;;;13.71;81.00
20971;BME280;10644;48.834;10.088;2023-11-19T07:50:13;96482.09;;;13.72;81.77
20971;BME280;10644;48.834;10.088;2023-11-19T07:52:41;96479.16;;;13.53;82.15
20971;BME280;10644;48.834;10.088;2023-11-19T07:55:07;96478.53;;;13.62;82.35
20971;BME280;10644;48.834;10.088;2023-11-19T07:57:33;96468.13;;;13.51;82.59
20971;BME280;10644;48.834;10.088;2023-11-19T07:59:58;96478.75;;;13.59;82.71
20971;BME280;10644;48.834;10.088;2023-11-19T08:02:23;96471.31;;;13.67;82.26
20971;BME280;10644;48.834;10.088;2023-11-19T08:04:52;96478.91;;;13.81;81.68
20971;BME280;10644;48.834;10.088;2023-11-19T08:07:23;96475.16;;;13.85;81.44
20971;BME280;10644;48.834;10.088;2023-11-19T08:09:48;96468.97;;;13.87;81.24
20971;BME280;10644;48.834;10.088;2023-11-19T08:12:14;96477.22;;;13.80;81.87
20971;BME280;10644;48.834;10.088;2023-11-19T08:14:42;96470.84;;;13.85;81.52
20971;BME280;10644;48.834;10.088;2023-11-19T08:17:09;96475.41;;;13.82;81.84
20971;BME280;10644;48.834;10.088;2023-11-19T08:19:34;96472.28;;;13.89;81.31
20971;BME280;10644;48.834;10.088;2023-11-19T08:21:59;96477.59;;;13.99;80.64
20971;BME280;10644;48.834;10.088;2023-11-19T08:24:25;96466.88;;;14.05;80.31
20971;BME280;10644;48.834;10.088;2023-11-19T08:26:50;96480.00;;;14.13;80.01
20971;BME280;10644;48.834;10.088;2023-11-19T08:29:16;96477.09;;;14.30;79.63
20971;BME280;10644;48.834;10.088;2023-11-19T08:31:42;96467.22;;;14.24;80.00
20971;BME280;10644;48.834;10.088;2023-11-19T08:34:07;96456.09;;;14.23;80.56
20971;BME280;10644;48.834;10.088;2023-11-19T08:36:35;96470.84;;;14.21;80.25
20971;BME280;10644;48.834;10.088;2023-11-19T08:39:01;96462.72;;;14.15;80.18
20971;BME280;10644;48.834;10.088;2023-11-19T08:41:28;96459.97;;;14.29;79.81
20971;BME280;10644;48.834;10.088;2023-11-19T08:43:56;96458.06;;;14.20;79.68
20971;BME280;10644;48.834;10.088;2023-11-19T08:46:21;96456.91;;;14.24;79.66
20971;BME280;10644;48.834;10.088;2023-11-19T08:48:50;96467.56;;;14.43;79.20
20971;BME280;10644;48.834;10.088;2023-11-19T08:51:15;96449.38;;;14.44;78.76
20971;BME280;10644;48.834;10.088;2023-11-19T08:53:41;96452.31;;;14.40;79.07
20971;BME280;10644;48.834;10.088;2023-11-19T08:56:07;96460.22;;;14.26;79.62
20971;BME280;10644;48.834;10.088;2023-11-19T08:58:33;96445.72;;;14.36;79.64
20971;BME280;10644;48.834;10.088;2023-11-19T09:01:00;96454.09;;;14.50;79.43
20971;BME280;10644;48.834;10.088;2023-11-19T09:03:31;96465.47;;;14.59;79.25
20971;BME280;10644;48.834;10.088;2023-11-19T09:05:56;96469.47;;;14.63;78.95
20971;BME280;10644;48.834;10.088;2023-11-19T09:08:22;96482.41;;;14.74;77.97
20971;BME280;10644;48.834;10.088;2023-11-19T09:10:47;96475.72;;;14.71;78.11
20971;BME280;10644;48.834;10.088;2023-11-19T09:13:13;96482.19;;;14.77;77.69
20971;BME280;10644;48.834;10.088;2023-11-19T09:15:38;96463.34;;;14.87;77.45
20971;BME280;10644;48.834;10.088;2023-11-19T09:18:04;96479.16;;;14.83;77.15
20971;BME280;10644;48.834;10.088;2023-11-19T09:20:32;96474.16;;;14.92;77.01
20971;BME280;10644;48.834;10.088;2023-11-19T09:23:03;96479.53;;;15.00;75.88
20971;BME280;10644;48.834;10.088;2023-11-19T09:25:28;96478.03;;;15.09;75.38
20971;BME280;10644;48.834;10.088;2023-11-19T09:27:56;96497.88;;;15.08;76.05
20971;BME280;10644;48.834;10.088;2023-11-19T09:30:21;96493.25;;;14.90;76.63
20971;BME280;10644;48.834;10.088;2023-11-19T09:32:48;96486.88;;;14.72;77.49
20971;BME280;10644;48.834;10.088;2023-11-19T09:35:13;96507.66;;;14.92;77.65
20971;BME280;10644;48.834;10.088;2023-11-19T09:37:40;96507.28;;;14.86;76.71
20971;BME280;10644;48.834;10.088;2023-11-19T09:40:06;96505.97;;;14.69;77.23
20971;BME280;10644;48.834;10.088;2023-11-19T09:42:42;96502.28;;;14.95;77.25
20971;BME280;10644;48.834;10.088;2023-11-19T09:45:13;96493.47;;;14.87;77.60
20971;BME280;10644;48.834;10.088;2023-11-19T09:47:39;96479.31;;;15.03;77.60
20971;BME280;10644;48.834;10.088;2023-11-19T09:50:05;96477.09;;;15.21;77.26
20971;BME280;10644;48.834;10.088;2023-11-19T09:52:31;96486.56;;;15.44;76.86
20971;BME280;10644;48.834;10.088;2023-11-19T09:54:56;96489.38;;;15.63;76.30
20971;BME280;10644;48.834;10.088;2023-11-19T09:57:22;96484.44;;;15.60;75.58
20971;BME280;10644;48.834;10.088;2023-11-19T09:59:48;96473.84;;;15.85;75.99
20971;BME280;10644;48.834;10.088;2023-11-19T10:02:14;96471.25;;;15.96;74.64
20971;BME280;10644;48.834;10.088;2023-11-19T10:04:40;96484.41;;;15.82;73.82
20971;BME280;10644;48.834;10.088;2023-11-19T10:07:07;96467.75;;;15.75;73.67
20971;BME280;10644;48.834;10.088;2023-11-19T10:09:33;96464.97;;;15.67;74.17
20971;BME280;10644;48.834;10.088;2023-11-19T10:11:58;96472.81;;;15.65;74.21
20971;BME280;10644;48.834;10.088;2023-11-19T10:14:24;96478.47;;;15.48;74.68
20971;BME280;10644;48.834;10.088;2023-11-19T10:16:49;96475.03;;;15.59;74.59
20971;BME280;10644;48.834;10.088;2023-11-19T10:19:20;96480.69;;;15.64;74.45
20971;BME280;10644;48.834;10.088;2023-11-19T10:21:46;96476.47;;;15.63;73.63
20971;BME280;10644;48.834;10.088;2023-11-19T10:24:11;96492.66;;;15.54;73.96
20971;BME280;10644;48.834;10.088;2023-11-19T10:26:37;96504.59;;;15.77;73.90
20971;BME280;10644;48.834;10.088;2023-11-19T10:29:02;96501.34;;;15.64;73.89
20971;BME280;10644;48.834;10.088;2023-11-19T10:31:29;96500.75;;;15.60;74.58
20971;BME280;10644;48.834;10.088;2023-11-19T10:33:55;96489.84;;;15.68;76.12
20971;BME280;10644;48.834;10.088;2023-11-19T10:36:21;96475.25;;;15.89;75.55
20971;BME280;10644;48.834;10.088;2023-11-19T10:38:56;96469.47;;;15.96;75.49
20971;BME280;10644;48.834;10.088;2023-11-19T10:43:53;96469.75;;;16.25;74.47
20971;BME280;10644;48.834;10.088;2023-11-19T10:46:18;96461.41;;;16.43;73.61
20971;BME280;10644;48.834;10.088;2023-11-19T10:48:48;96462.47;;;16.41;73.12
20971;BME280;10644;48.834;10.088;2023-11-19T10:51:18;96461.41;;;16.43;72.85
20971;BME280;10644;48.834;10.088;2023-11-19T10:53:49;96455.72;;;16.49;72.36
20971;BME280;10644;48.834;10.088;2023-11-19T10:56:16;96443.97;;;16.45;72.46
20971;BME280;10644;48.834;10.088;2023-11-19T10:58:44;96451.91;;;16.53;72.50
20971;BME280;10644;48.834;10.088;2023-11-19T11:01:19;96449.72;;;16.49;72.14
20971;BME280;10644;48.834;10.088;2023-11-19T11:03:46;96440.09;;;16.51;71.85
20971;BME280;10644;48.834;10.088;2023-11-19T11:06:13;96438.72;;;16.36;71.90
20971;BME280;10644;48.834;10.088;2023-11-19T11:08:39;96443.16;;;16.45;72.30
20971;BME280;10644;48.834;10.088;2023-11-19T11:11:05;96439.81;;;16.54;71.70
20971;BME280;10644;48.834;10.088;2023-11-19T11:13:31;96444.09;;;16.44;71.32
20971;BME280;10644;48.834;10.088;2023-11-19T11:15:57;96445.50;;;16.48;71.50
20971;BME280;10644;48.834;10.088;2023-11-19T11:18:23;96436.78;;;16.49;70.92
20971;BME280;10644;48.834;10.088;2023-11-19T11:20:53;96419.41;;;16.51;70.71
20971;BME280;10644;48.834;10.088;2023-11-19T11:28:43;96418.84;;;16.88;70.16
20971;BME280;10644;48.834;10.088;2023-11-19T11:34:17;96423.91;;;17.20;69.03
20971;BME280;10644;48.834;10.088;2023-11-19T11:39:22;96434.59;;;17.36;66.30
20971;BME280;10644;48.834;10.088;2023-11-19T11:45:07;96430.97;;;17.18;67.37
20971;BME280;10644;48.834;10.088;2023-11-19T11:50:15;96427.09;;;16.82;68.10
20971;BME280;10644;48.834;10.088;2023-11-19T11:58:06;96419.53;;;17.41;66.74
20971;BME280;10644;48.834;10.088;2023-11-19T12:00:41;96413.66;;;17.48;66.25
20971;BME280;10644;48.834;10.088;2023-11-19T12:03:11;96422.84;;;17.62;65.95
20971;BME280;10644;48.834;10.088;2023-11-19T12:05:44;96429.75;;;17.82;64.40
20971;BME280;10644;48.834;10.088;2023-11-19T12:08:11;96410.22;;;17.68;63.09
20971;BME280;10644;48.834;10.088;2023-11-19T12:10:50;96428.56;;;17.56;64.01
20971;BME280;10644;48.834;10.088;2023-11-19T12:13:17;96421.31;;;17.50;63.82
20971;BME280;10644;48.834;10.088;2023-11-19T12:18:26;96416.72;;;17.33;64.79
20971;BME280;10644;48.834;10.088;2023-11-19T12:20:52;96402.34;;;17.40;65.09
20971;BME280;10644;48.834;10.088;2023-11-19T12:23:20;96415.19;;;17.51;64.32
20971;BME280;10644;48.834;10.088;2023-11-19T12:25:45;96400.44;;;17.42;64.60
20971;BME280;10644;48.834;10.088;2023-11-19T12:28:17;96396.66;;;17.25;64.98
20971;BME280;10644;48.834;10.088;2023-11-19T12:30:45;96396.19;;;17.11;64.60
20971;BME280;10644;48.834;10.088;2023-11-19T12:33:12;96384.31;;;17.08;65.33
20971;BME280;10644;48.834;10.088;2023-11-19T12:35:42;96378.53;;;16.95;65.06
20971;BME280;10644;48.834;10.088;2023-11-19T12:38:41;96382.56;;;16.79;64.79
20971;BME280;10644;48.834;10.088;2023-11-19T12:43:29;96386.44;;;16.94;64.90
20971;BME280;10644;48.834;10.088;2023-11-19T12:45:55;96385.13;;;16.99;64.92
20971;BME280;10644;48.834;10.088;2023-11-19T12:48:20;96378.47;;;17.06;65.47
20971;BME280;10644;48.834;10.088;2023-11-19T12:50:57;96369.69;;;17.28;64.67
20971;BME280;10644;48.834;10.088;2023-11-19T12:53:23;96360.28;;;17.27;64.77
20971;BME280;10644;48.834;10.088;2023-11-19T12:55:50;96374.75;;;17.69;64.22
20971;BME280;10644;48.834;10.088;2023-11-19T12:58:32;96372.44;;;17.85;63.91
20971;BME280;10644;48.834;10.088;2023-11-19T13:01:08;96374.13;;;17.95;63.51
20971;BME280;10644;48.834;10.088;2023-11-19T13:03:36;96360.75;;;18.00;63.38
20971;BME280;10644;48.834;10.088;2023-11-19T13:08:40;96344.34;;;17.71;63.47
20971;BME280;10644;48.834;10.088;2023-11-19T13:11:07;96353.19;;;17.59;63.22
20971;BME280;10644;48.834;10.088;2023-11-19T13:14:01;96346.09;;;17.61;63.66
20971;BME280;10644;48.834;10.088;2023-11-19T13:16:30;96338.34;;;17.70;63.30
20971;BME280;10644;48.834;10.088;2023-11-19T13:18:56;96339.00;;;17.63;63.13
20971;BME280;10644;48.834;10.088;2023-11-19T13:21:22;96334.78;;;17.62;63.79